Time;durP1;ratioP1;P1;durP2;ratioP2;P2;SDS_P1;SDS_P2;PMS_P1;PMS_P2;Temp;Humidity;BMP_temperature;BMP_pressure;BME280_temperature;BME280_humidity;BME280_pressure;Samples;Min_cycle;Max_cycle;Signal;HPM_P1;HPM_P2
2022/12/23 00:00:25;;;;;;;75.67;29.73;;;;;;;5.80;95.81;99995.50;4170025;28;20311;-58
2022/12/23 00:02:27;;;;;;;78.47;30.47;;;;;;;5.82;95.87;99988.13;4175664;28;20714;-60
2022/12/23 00:04:29;;;;;;;82.53;31.10;;;;;;;5.81;95.71;99983.75;4177490;28;20284;-60
2022/12/23 00:06:32;;;;;;;82.47;30.40;;;;;;;5.81;95.84;99978.41;4167418;28;20650;-60
2022/12/23 00:08:34;;;;;;;84.87;30.70;;;;;;;5.80;95.50;99983.91;4179248;28;20297;-59
2022/12/23 00:10:38;;;;;;;83.77;30.53;;;;;;;5.78;95.57;99974.22;4193561;28;20309;-57
2022/12/23 00:15:07;;;;;;;88.80;32.27;;;;;;;5.78;96.13;99974.22;4177499;28;20359;-59
2022/12/23 00:17:11;;;;;;;88.33;31.27;;;;;;;5.77;95.90;99966.34;4177954;28;20711;-59
2022/12/23 00:19:13;;;;;;;89.20;31.57;;;;;;;5.78;95.91;99968.88;4166575;28;20288;-58
2022/12/23 00:21:17;;;;;;;88.70;31.43;;;;;;;5.78;96.48;99963.50;4178283;28;20742;-55
2022/12/23 00:23:18;;;;;;;92.03;32.20;;;;;;;5.80;96.45;99957.13;4178508;28;20292;-58
2022/12/23 00:25:38;;;;;;;94.10;32.83;;;;;;;5.83;96.51;99952.28;4148007;28;20701;-59
2022/12/23 00:27:41;;;;;;;94.20;32.33;;;;;;;5.84;96.35;99939.72;4169457;28;20279;-60
2022/12/23 00:29:43;;;;;;;99.90;33.10;;;;;;;5.86;96.42;99943.91;4175196;28;21262;-59
2022/12/23 00:31:47;;;;;;;98.80;33.37;;;;;;;5.89;96.27;99945.41;4170719;28;20735;-59
2022/12/23 00:33:52;;;;;;;102.37;33.27;;;;;;;5.91;96.75;99941.56;4178163;28;20281;-60
2022/12/23 00:35:54;;;;;;;102.07;33.80;;;;;;;5.92;96.78;99932.53;4166520;28;21291;-59
2022/12/23 00:37:56;;;;;;;85.50;31.07;;;;;;;5.95;96.57;99931.34;4175723;28;20725;-60
2022/12/23 00:44:38;;;;;;;94.33;32.97;;;;;;;5.89;96.41;99932.88;4172196;28;20617;-60
2022/12/23 00:46:40;;;;;;;88.37;31.33;;;;;;;5.87;95.91;99929.50;4167245;28;20311;-58
2022/12/23 00:51:04;;;;;;;83.97;31.40;;;;;;;5.87;96.20;99915.28;4140808;28;20694;-60
2022/12/23 00:53:06;;;;;;;87.87;31.77;;;;;;;5.90;96.70;99921.13;4167758;28;20284;-59
2022/12/23 00:55:09;;;;;;;90.20;32.60;;;;;;;5.94;96.73;99919.81;4174260;28;20812;-59
2022/12/23 00:57:11;;;;;;;90.77;32.83;;;;;;;5.95;96.81;99929.50;4166818;28;20743;-58
2022/12/23 00:59:14;;;;;;;88.00;31.57;;;;;;;5.97;96.74;99926.69;4168028;28;20294;-59
2022/12/23 01:05:57;;;;;;;99.33;32.73;;;;;;;5.94;97.10;99932.34;4166809;28;20743;-58
2022/12/23 01:07:59;;;;;;;92.17;32.83;;;;;;;5.95;97.10;99937.53;4180071;28;20710;-60
2022/12/23 01:10:01;;;;;;;89.97;31.37;;;;;;;5.96;97.01;99935.72;4177521;28;20228;-58
2022/12/23 01:12:04;;;;;;;89.43;31.60;;;;;;;5.95;96.93;99928.66;4168740;28;20301;-59
2022/12/23 01:14:08;;;;;;;90.27;31.73;;;;;;;5.95;96.96;99921.44;4179434;28;20320;-59
2022/12/23 01:16:11;;;;;;;87.77;31.27;;;;;;;5.94;96.79;99927.84;4153830;28;20329;-59
2022/12/23 01:18:14;;;;;;;86.93;31.77;;;;;;;5.94;96.86;99919.81;4180778;28;21004;-57
2022/12/23 01:20:16;;;;;;;83.77;31.47;;;;;;;5.94;96.71;99922.47;4180287;28;20322;-58
2022/12/23 01:22:20;;;;;;;84.37;31.50;;;;;;;5.91;96.77;99917.44;4165143;28;20287;-60
2022/12/23 01:24:22;;;;;;;82.37;31.00;;;;;;;5.93;97.00;99911.91;4164589;28;20688;-58
2022/12/23 01:26:25;;;;;;;80.27;30.60;;;;;;;5.95;97.26;99915.25;4137360;28;20328;-58
2022/12/23 01:28:28;;;;;;;83.63;31.10;;;;;;;5.97;97.43;99918.63;4165780;28;20699;-58
2022/12/23 01:30:31;;;;;;;85.23;30.83;;;;;;;5.97;97.16;99921.31;4176675;28;20230;-60
2022/12/23 01:32:33;;;;;;;82.80;30.47;;;;;;;5.97;97.64;99915.97;4172310;28;20697;-60
2022/12/23 01:34:35;;;;;;;82.30;30.70;;;;;;;5.98;97.23;99920.31;4171123;28;20312;-59
2022/12/23 01:36:37;;;;;;;81.97;30.60;;;;;;;5.97;97.25;99915.97;4164374;28;20317;-59
2022/12/23 01:38:41;;;;;;;71.10;29.07;;;;;;;5.95;97.23;99912.59;4165154;28;20285;-56
2022/12/23 01:40:44;;;;;;;68.33;28.30;;;;;;;5.93;97.45;99914.59;4140239;28;20702;-56
2022/12/23 01:42:46;;;;;;;66.23;28.60;;;;;;;5.93;97.19;99906.56;4169344;28;20297;-57
2022/12/23 01:44:54;;;;;;;75.33;29.93;;;;;;;5.93;97.28;99903.88;4163998;28;20288;-58
2022/12/23 01:46:57;;;;;;;81.53;30.00;;;;;;;5.90;97.40;99898.84;4142097;28;20308;-60
2022/12/23 01:48:59;;;;;;;81.73;30.60;;;;;;;5.90;97.25;99902.38;4172239;28;20290;-59
2022/12/23 01:51:04;;;;;;;83.77;30.97;;;;;;;5.91;97.73;99900.53;4165971;28;20695;-58
2022/12/23 01:53:08;;;;;;;83.37;31.03;;;;;;;5.88;97.83;99893.66;4165678;28;20690;-58
2022/12/23 01:55:13;;;;;;;84.13;31.73;;;;;;;5.90;97.53;99898.84;4153446;28;20758;-57
2022/12/23 01:57:15;;;;;;;80.67;30.77;;;;;;;5.89;97.57;99895.34;4179650;28;20747;-59
2022/12/23 02:03:55;;;;;;;70.93;29.93;;;;;;;5.85;97.89;99888.63;4174489;28;20740;-57
2022/12/23 02:09:15;;;;;;;72.83;30.30;;;;;;;5.86;98.08;99892.16;4178733;28;20325;-58
2022/12/23 02:10:54;;;;;;;71.47;29.87;;;;;;;5.87;98.30;99891.16;4150729;28;20731;-56
2022/12/23 02:13:00;;;;;;;72.63;29.53;;;;;;;5.88;98.38;99888.31;4169487;28;20677;-58
2022/12/23 02:17:36;;;;;;;72.03;29.17;;;;;;;5.93;98.92;99882.44;4164001;28;20620;-58
2022/12/23 02:20:06;;;;;;;71.53;29.13;;;;;;;5.97;98.86;99878.44;4164021;28;20274;-60
2022/12/23 02:22:20;;;;;;;74.30;30.17;;;;;;;6.00;98.62;99872.72;4175809;28;20327;-59
2022/12/23 02:25:05;;;;;;;80.70;30.87;;;;;;;6.03;98.55;99864.34;4163966;28;21074;-58
2022/12/23 02:27:18;;;;;;;69.13;29.37;;;;;;;6.06;98.54;99863.19;4148710;28;20766;-58
2022/12/23 02:29:45;;;;;;;68.57;28.97;;;;;;;6.06;98.75;99855.97;4173464;28;20211;-59
2022/12/23 02:31:55;;;;;;;67.83;28.80;;;;;;;6.08;98.51;99855.81;4176078;28;20321;-61
2022/12/23 02:34:01;;;;;;;67.13;28.57;;;;;;;6.08;98.53;99855.81;4179730;28;20205;-59
2022/12/23 02:36:10;;;;;;;67.43;28.67;;;;;;;6.11;98.70;99850.09;4170475;28;21104;-59
2022/12/23 02:38:14;;;;;;;66.33;28.73;;;;;;;6.12;98.53;99847.25;4176457;28;20900;-59
2022/12/23 02:40:23;;;;;;;65.97;28.27;;;;;;;6.12;98.16;99843.75;4141218;28;20301;-58
2022/12/23 02:42:30;;;;;;;66.70;28.73;;;;;;;6.13;97.96;99843.59;4181281;28;20294;-58
2022/12/23 02:44:36;;;;;;;66.77;28.47;;;;;;;6.14;98.20;99839.03;4158639;28;20283;-58
2022/12/23 02:46:42;;;;;;;70.17;29.47;;;;;;;6.13;98.00;99837.41;4149069;28;20749;-57
2022/12/23 02:48:50;;;;;;;71.40;30.50;;;;;;;6.13;98.13;99832.84;4179433;28;20278;-59
2022/12/23 02:50:53;;;;;;;67.83;28.73;;;;;;;6.14;98.07;99833.69;4178682;28;20325;-55
2022/12/23 02:52:57;;;;;;;71.50;29.77;;;;;;;6.13;98.05;99838.22;4178692;28;20293;-57
2022/12/23 02:55:03;;;;;;;89.23;32.93;;;;;;;6.16;98.60;99838.88;4167261;28;20632;-59
2022/12/23 02:57:07;;;;;;;88.23;31.63;;;;;;;6.16;98.55;99833.50;4177717;28;20776;-60
2022/12/23 02:59:13;;;;;;;91.83;31.53;;;;;;;6.17;98.44;99832.50;4178906;28;20708;-57
2022/12/23 03:01:16;;;;;;;87.73;31.50;;;;;;;6.17;98.44;99824.47;4177192;28;20737;-59
2022/12/23 03:03:19;;;;;;;87.73;31.80;;;;;;;6.18;98.47;99816.25;4179551;28;20350;-59
2022/12/23 03:05:29;;;;;;;87.33;31.93;;;;;;;6.18;98.37;99816.25;4152271;28;20721;-58
2022/12/23 03:07:34;;;;;;;88.00;31.73;;;;;;;6.20;98.29;99814.22;4177822;28;20732;-58
2022/12/23 03:09:42;;;;;;;86.73;31.47;;;;;;;6.18;98.50;99821.63;4179730;28;20714;-57
2022/12/23 03:11:51;;;;;;;87.20;31.47;;;;;;;6.18;97.99;99820.78;4170192;28;20646;-55
2022/12/23 03:14:07;;;;;;;87.73;31.93;;;;;;;6.18;98.14;99815.44;4163340;28;20712;-57
2022/12/23 03:16:14;;;;;;;84.13;31.73;;;;;;;6.15;98.31;99808.56;4132550;28;20776;-57
2022/12/23 03:18:23;;;;;;;78.87;30.67;;;;;;;6.18;98.26;99812.75;4152863;28;20725;-54
2022/12/23 03:20:28;;;;;;;83.70;31.53;;;;;;;6.18;98.45;99816.25;4158749;28;20760;-59
2022/12/23 03:22:35;;;;;;;81.20;30.80;;;;;;;6.18;98.23;99807.38;4150537;28;20714;-55
2022/12/23 03:24:44;;;;;;;76.00;30.07;;;;;;;6.20;98.57;99810.72;4163061;28;20722;-58
2022/12/23 03:26:50;;;;;;;74.10;29.53;;;;;;;6.21;98.49;99805.19;4164507;28;20308;-54
2022/12/23 03:28:56;;;;;;;76.93;30.27;;;;;;;6.20;98.36;99800.81;4165156;28;20720;-58
2022/12/23 03:30:59;;;;;;;73.63;29.77;;;;;;;6.19;98.49;99792.94;4146731;28;20330;-55
2022/12/23 03:33:04;;;;;;;64.53;28.37;;;;;;;6.20;98.33;99798.16;4173306;28;20985;-53
2022/12/23 03:35:08;;;;;;;67.00;29.10;;;;;;;6.17;98.43;99801.16;4170516;28;20940;-54
2022/12/23 03:37:13;;;;;;;66.43;28.77;;;;;;;6.16;98.37;99807.56;4166419;28;21170;-59
2022/12/23 03:39:17;;;;;;;69.33;29.47;;;;;;;6.15;98.12;99803.19;4171677;28;20704;-56
2022/12/23 03:41:25;;;;;;;73.07;29.87;;;;;;;6.17;98.41;99800.34;4145547;28;20768;-57
2022/12/23 03:43:29;;;;;;;77.33;30.60;;;;;;;6.17;98.53;99793.13;4176159;28;21043;-59
2022/12/23 03:45:34;;;;;;;80.30;30.70;;;;;;;6.20;98.26;99792.78;4151663;28;20656;-59
2022/12/23 03:47:40;;;;;;;82.70;31.57;;;;;;;6.21;98.37;99791.78;4161497;28;20711;-56
2022/12/23 03:49:45;;;;;;;87.33;32.30;;;;;;;6.22;98.67;99787.25;4168335;28;20294;-56
2022/12/23 03:51:49;;;;;;;86.70;31.67;;;;;;;6.23;98.47;99786.25;4178453;28;20744;-57
2022/12/23 03:53:54;;;;;;;88.43;32.20;;;;;;;6.24;98.67;99779.91;4179015;28;20709;-58
2022/12/23 03:56:00;;;;;;;87.30;32.27;;;;;;;6.25;98.93;99782.41;4149565;28;20329;-59
2022/12/23 03:58:10;;;;;;;82.93;31.30;;;;;;;6.26;98.56;99781.38;4178893;28;21209;-59
2022/12/23 04:00:13;;;;;;;82.53;31.73;;;;;;;6.27;98.83;99783.06;4140345;28;20317;-58
2022/12/23 04:02:18;;;;;;;78.20;30.93;;;;;;;6.27;98.70;99784.88;4165459;28;20287;-57
2022/12/23 04:04:24;;;;;;;71.33;30.07;;;;;;;6.26;98.35;99778.69;4166922;28;20941;-58
2022/12/23 04:06:30;;;;;;;53.33;26.57;;;;;;;6.25;98.52;99773.50;4171288;28;20320;-57
2022/12/23 04:08:35;;;;;;;49.73;25.57;;;;;;;6.24;98.51;99775.34;4181791;28;20293;-56
2022/12/23 04:10:38;;;;;;;80.90;31.23;;;;;;;6.24;98.48;99777.22;4172071;28;20341;-56
2022/12/23 04:12:41;;;;;;;82.73;31.63;;;;;;;6.22;98.88;99768.47;4177097;28;20273;-56
2022/12/23 04:14:46;;;;;;;75.53;30.37;;;;;;;6.22;98.76;99776.53;4181882;28;20279;-57
2022/12/23 04:16:53;;;;;;;62.87;28.90;;;;;;;6.22;98.77;99771.16;4180793;28;20317;-54
2022/12/23 04:18:55;;;;;;;65.27;29.10;;;;;;;6.24;99.16;99769.16;4182163;28;20723;-56
2022/12/23 04:20:58;;;;;;;73.70;30.03;;;;;;;6.23;98.66;99762.13;4180827;28;20333;-54
2022/12/23 04:23:00;;;;;;;68.47;29.30;;;;;;;6.22;98.89;99765.78;4180171;28;20754;-57
2022/12/23 04:25:02;;;;;;;67.47;29.60;;;;;;;6.21;99.21;99764.16;4158428;28;20783;-59
2022/12/23 04:27:06;;;;;;;66.83;28.90;;;;;;;6.21;98.52;99756.09;4164473;28;20305;-57
2022/12/23 04:29:08;;;;;;;66.00;29.10;;;;;;;6.24;99.09;99747.72;4178011;28;20276;-54
2022/12/23 04:31:11;;;;;;;61.73;28.07;;;;;;;6.24;99.17;99756.59;4180454;28;20319;-56
2022/12/23 04:33:13;;;;;;;57.70;27.37;;;;;;;6.24;99.26;99761.94;4165631;28;20285;-56
2022/12/23 04:35:15;;;;;;;55.47;27.00;;;;;;;6.22;99.10;99758.63;4164723;28;20300;-55
2022/12/23 04:37:18;;;;;;;58.77;27.37;;;;;;;6.22;99.44;99755.94;4165842;28;20314;-56
2022/12/23 04:39:20;;;;;;;62.13;28.43;;;;;;;6.22;99.03;99763.13;4181256;28;21505;-56
2022/12/23 04:41:23;;;;;;;77.97;30.90;;;;;;;6.22;99.08;99758.63;4174712;28;20314;-57
2022/12/23 04:43:26;;;;;;;79.03;30.30;;;;;;;6.22;99.57;99755.94;4165976;28;20631;-54
2022/12/23 04:45:29;;;;;;;78.53;30.67;;;;;;;6.21;99.23;99756.94;4165447;28;20778;-56
2022/12/23 04:47:31;;;;;;;69.73;29.07;;;;;;;6.24;99.32;99750.41;4179708;28;20288;-55
2022/12/23 04:49:33;;;;;;;67.80;28.87;;;;;;;6.24;99.59;99753.06;4168015;28;20297;-56
2022/12/23 04:51:35;;;;;;;74.83;30.30;;;;;;;6.22;99.73;99749.72;4144490;28;20765;-55
2022/12/23 04:53:38;;;;;;;70.57;29.57;;;;;;;6.22;99.73;99757.75;4170601;28;20755;-55
2022/12/23 04:55:40;;;;;;;66.20;28.87;;;;;;;6.21;99.75;99750.75;4138584;28;20673;-55
2022/12/23 04:57:42;;;;;;;23.73;18.70;;;;;;;6.22;99.76;99755.06;4164701;28;20669;-57
2022/12/23 04:59:46;;;;;;;61.93;27.83;;;;;;;6.22;99.67;99755.94;4165793;28;20205;-58
2022/12/23 05:01:48;;;;;;;67.93;29.03;;;;;;;6.22;99.89;99757.75;4151544;28;20326;-57
2022/12/23 05:03:50;;;;;;;66.00;28.50;;;;;;;6.23;99.78;99752.22;4177793;28;20294;-57
2022/12/23 05:05:52;;;;;;;68.47;29.13;;;;;;;6.22;99.94;99750.56;4164553;28;20315;-59
2022/12/23 05:08:02;;;;;;;67.70;28.97;;;;;;;6.20;99.67;99752.56;4164744;28;20292;-60
2022/12/23 05:10:05;;;;;;;71.67;29.53;;;;;;;6.21;99.80;99753.41;4147302;28;20228;-59
2022/12/23 05:12:08;;;;;;;73.13;29.63;;;;;;;6.21;99.77;99754.25;4174569;28;20753;-59
2022/12/23 05:14:10;;;;;;;73.93;29.60;;;;;;;6.20;99.79;99757.94;4165017;28;20281;-59
2022/12/23 05:16:14;;;;;;;77.53;30.20;;;;;;;6.22;99.93;99755.06;4137925;28;21348;-53
2022/12/23 05:18:16;;;;;;;90.70;32.20;;;;;;;6.16;100.00;99750.41;4165207;28;20763;-57
2022/12/23 05:20:18;;;;;;;80.37;30.97;;;;;;;6.17;99.99;99750.22;4138321;28;20677;-55
2022/12/23 05:22:20;;;;;;;77.50;30.53;;;;;;;6.16;100.00;99761.97;4164193;28;20282;-54
2022/12/23 05:24:23;;;;;;;77.60;30.37;;;;;;;6.17;100.00;99758.28;4164936;28;20283;-55
2022/12/23 05:26:25;;;;;;;82.33;31.33;;;;;;;6.19;100.00;99758.09;4137517;28;20314;-54
2022/12/23 05:28:27;;;;;;;90.57;32.30;;;;;;;6.21;100.00;99761.47;4164743;28;20290;-54
2022/12/23 05:30:29;;;;;;;104.27;35.50;;;;;;;6.23;100.00;99760.25;4137109;28;20765;-57
2022/12/23 05:32:33;;;;;;;90.97;32.03;;;;;;;6.24;100.00;99755.75;4173436;28;20717;-59
2022/12/23 05:34:35;;;;;;;82.37;31.60;;;;;;;6.27;100.00;99758.06;4164888;28;20712;-57
2022/12/23 05:36:37;;;;;;;96.10;32.40;;;;;;;6.26;100.00;99759.09;4157750;28;20337;-57
2022/12/23 05:38:40;;;;;;;84.77;31.30;;;;;;;6.24;100.00;99755.75;4182860;28;20720;-58
2022/12/23 05:40:42;;;;;;;80.00;31.60;;;;;;;6.28;100.00;99760.56;4151872;28;21273;-53
2022/12/23 05:42:44;;;;;;;86.57;31.80;;;;;;;6.30;100.00;99763.09;4174225;28;20736;-57
2022/12/23 05:44:47;;;;;;;71.13;29.27;;;;;;;6.30;100.00;99757.72;4179748;28;20278;-59
2022/12/23 05:46:49;;;;;;;93.80;32.53;;;;;;;6.29;100.00;99756.06;4169370;28;20333;-55
2022/12/23 05:48:53;;;;;;;95.57;32.63;;;;;;;6.28;100.00;99749.84;4169611;28;20321;-56
2022/12/23 05:50:55;;;;;;;93.50;33.50;;;;;;;6.27;100.00;99752.69;4149707;28;20677;-55
2022/12/23 05:52:57;;;;;;;99.00;32.37;;;;;;;6.26;100.00;99756.41;4179322;28;20283;-59
2022/12/23 05:55:00;;;;;;;75.60;30.50;;;;;;;6.28;100.00;99754.38;4175456;28;20688;-59
2022/12/23 05:57:02;;;;;;;72.83;29.77;;;;;;;6.29;100.00;99756.06;4178203;28;20325;-58
2022/12/23 05:59:05;;;;;;;70.80;29.57;;;;;;;6.30;100.00;99763.09;4176328;28;20272;-59
2022/12/23 06:01:07;;;;;;;70.87;29.73;;;;;;;6.30;100.00;99757.72;4179691;28;20236;-56
2022/12/23 06:03:10;;;;;;;72.67;30.13;;;;;;;6.31;100.00;99752.19;4168418;28;20279;-52
2022/12/23 06:05:14;;;;;;;72.50;30.37;;;;;;;6.32;100.00;99759.22;4139670;28;20280;-59
2022/12/23 06:07:16;;;;;;;70.73;29.33;;;;;;;6.31;100.00;99754.88;4188630;28;20326;-58
2022/12/23 06:09:18;;;;;;;76.07;30.00;;;;;;;6.35;100.00;99759.88;4167298;28;20267;-60
2022/12/23 06:11:21;;;;;;;73.47;30.10;;;;;;;6.35;100.00;99762.56;4147242;28;20325;-58
2022/12/23 06:13:23;;;;;;;71.17;29.90;;;;;;;6.35;100.00;99765.25;4170149;28;20282;-58
2022/12/23 06:15:25;;;;;;;73.87;30.03;;;;;;;6.35;100.00;99765.25;4159278;28;20788;-56
2022/12/23 06:17:28;;;;;;;73.07;29.77;;;;;;;6.36;100.00;99769.59;4155633;28;20308;-56
2022/12/23 06:19:30;;;;;;;70.87;29.33;;;;;;;6.37;100.00;99769.44;4171021;28;20289;-54
2022/12/23 06:21:33;;;;;;;69.87;29.77;;;;;;;6.36;100.00;99773.13;4151582;28;20263;-56
2022/12/23 06:23:36;;;;;;;70.60;29.40;;;;;;;6.37;100.00;99777.47;4166053;28;20277;-55
2022/12/23 06:25:38;;;;;;;68.60;29.10;;;;;;;6.39;100.00;99780.81;4139887;28;20334;-53
2022/12/23 06:27:40;;;;;;;73.70;29.87;;;;;;;6.38;100.00;99783.69;4167707;28;20285;-57
2022/12/23 06:29:42;;;;;;;71.23;29.37;;;;;;;6.40;100.00;99787.88;4166463;28;20276;-56
2022/12/23 06:31:45;;;;;;;73.00;29.73;;;;;;;6.41;100.00;99783.31;4139358;28;20317;-57
2022/12/23 06:33:47;;;;;;;68.67;29.13;;;;;;;6.41;100.00;99789.53;4170545;28;20694;-57
2022/12/23 06:35:49;;;;;;;66.57;28.73;;;;;;;6.40;100.00;99793.22;4146765;28;20848;-57
2022/12/23 06:37:53;;;;;;;62.83;27.70;;;;;;;6.38;100.00;99789.03;4174649;28;20309;-56
2022/12/23 06:39:56;;;;;;;63.43;27.90;;;;;;;6.40;100.00;99798.59;4171566;28;20291;-56
2022/12/23 06:41:58;;;;;;;61.13;27.67;;;;;;;6.41;100.00;99802.97;4141829;28;20283;-56
2022/12/23 06:44:00;;;;;;;65.70;28.80;;;;;;;6.41;100.00;99794.06;4172201;28;20277;-54
2022/12/23 06:46:02;;;;;;;64.60;28.13;;;;;;;6.42;100.00;99798.41;4175223;28;20322;-58
2022/12/23 06:48:05;;;;;;;65.70;28.53;;;;;;;6.44;100.00;99807.13;4168534;28;20292;-54
2022/12/23 06:50:08;;;;;;;68.50;29.40;;;;;;;6.45;100.00;99811.50;4149175;28;20277;-56
2022/12/23 06:52:11;;;;;;;66.40;29.33;;;;;;;6.46;100.00;99818.53;4175887;28;20299;-56
2022/12/23 06:54:14;;;;;;;64.63;28.33;;;;;;;6.46;100.00;99813.16;4173056;28;20614;-53
2022/12/23 06:56:17;;;;;;;64.03;28.20;;;;;;;6.46;100.00;99822.03;4143977;28;20324;-55
2022/12/23 06:58:19;;;;;;;63.60;28.27;;;;;;;6.47;100.00;99818.38;4163099;28;20770;-58
2022/12/23 07:00:22;;;;;;;67.57;29.07;;;;;;;6.48;100.00;99822.69;4136785;28;20316;-60
2022/12/23 07:02:24;;;;;;;72.80;32.13;;;;;;;6.50;100.00;99825.22;4167793;28;20235;-57
2022/12/23 07:04:26;;;;;;;75.27;30.03;;;;;;;6.50;100.00;99822.53;4173645;28;20724;-56
2022/12/23 07:06:29;;;;;;;65.80;28.90;;;;;;;6.52;100.00;99831.25;4176159;28;20747;-58
2022/12/23 07:08:31;;;;;;;63.10;28.80;;;;;;;6.54;100.00;99837.28;4169009;28;20310;-58
2022/12/23 07:10:35;;;;;;;60.27;27.93;;;;;;;6.58;100.00;99837.75;4175326;28;20305;-57
2022/12/23 07:12:37;;;;;;;50.50;25.53;;;;;;;6.58;100.00;99841.31;4174452;28;20305;-57
2022/12/23 07:14:39;;;;;;;49.93;25.20;;;;;;;6.62;100.00;99841.78;4176281;28;20303;-58
2022/12/23 07:16:42;;;;;;;57.13;27.23;;;;;;;6.63;100.00;99838.94;4174896;28;20288;-55
2022/12/23 07:18:44;;;;;;;53.93;26.13;;;;;;;6.66;100.00;99849.31;4173195;28;20307;-58
2022/12/23 07:20:46;;;;;;;59.10;27.50;;;;;;;6.68;100.00;99846.47;4175611;28;20876;-57
2022/12/23 07:22:49;;;;;;;53.93;26.30;;;;;;;6.71;100.00;99845.25;4177054;28;20926;-57
2022/12/23 07:24:51;;;;;;;53.47;26.23;;;;;;;6.72;100.00;99849.63;4175513;28;20321;-53
2022/12/23 07:26:55;;;;;;;48.27;24.83;;;;;;;6.75;100.00;99846.59;4177243;28;20231;-58
2022/12/23 07:28:57;;;;;;;49.93;25.80;;;;;;;6.76;100.00;99861.69;4175302;28;20311;-58
2022/12/23 07:31:00;;;;;;;49.90;25.20;;;;;;;6.79;100.00;99859.50;4174144;28;20305;-57
2022/12/23 07:33:03;;;;;;;51.13;25.33;;;;;;;6.80;100.00;99857.63;4179903;28;20276;-56
2022/12/23 07:35:06;;;;;;;51.67;26.10;;;;;;;6.78;100.00;99857.81;4174331;28;20315;-59
2022/12/23 07:37:08;;;;;;;46.97;24.63;;;;;;;6.82;100.00;99858.31;4194328;28;20299;-61
2022/12/23 07:39:11;;;;;;;51.27;25.73;;;;;;;6.82;99.97;99864.50;4178308;28;20307;-59
2022/12/23 07:41:13;;;;;;;47.10;24.57;;;;;;;6.83;99.68;99860.81;4183767;28;20305;-58
2022/12/23 07:43:17;;;;;;;50.87;25.33;;;;;;;6.86;99.16;99867.66;4186069;28;20213;-57
2022/12/23 07:45:19;;;;;;;54.30;26.30;;;;;;;6.88;99.03;99868.34;4180970;28;20325;-58
2022/12/23 07:47:22;;;;;;;53.90;26.27;;;;;;;6.89;99.13;99866.50;4180909;28;20966;-59
2022/12/23 07:49:24;;;;;;;57.67;26.90;;;;;;;6.86;98.71;99865.00;4183121;28;20312;-59
2022/12/23 07:51:26;;;;;;;57.37;26.80;;;;;;;6.91;98.85;99868.00;4181963;28;20300;-58
2022/12/23 07:53:29;;;;;;;61.20;28.00;;;;;;;6.93;98.85;99873.16;4176064;28;20920;-60
2022/12/23 07:55:31;;;;;;;64.43;28.60;;;;;;;6.94;99.07;99872.16;4179795;28;20282;-58
2022/12/23 07:57:36;;;;;;;63.83;28.37;;;;;;;6.92;99.17;99869.66;4176170;28;20344;-56
2022/12/23 07:59:40;;;;;;;64.90;28.20;;;;;;;6.94;98.84;99872.16;4178846;28;20308;-58
2022/12/23 08:01:42;;;;;;;67.03;29.07;;;;;;;6.96;98.99;99871.00;4180082;28;20779;-59
2022/12/23 08:03:45;;;;;;;62.37;31.73;;;;;;;6.95;98.93;99874.69;4179596;28;20227;-58
2022/12/23 08:05:47;;;;;;;63.63;27.90;;;;;;;6.97;98.14;99878.00;4187367;28;20294;-59
2022/12/23 08:07:51;;;;;;;63.33;28.07;;;;;;;6.98;98.76;99879.69;4185034;28;20321;-56
2022/12/23 08:09:53;;;;;;;62.63;27.80;;;;;;;6.99;98.76;99883.22;4176685;28;20629;-60
2022/12/23 08:11:56;;;;;;;51.43;25.20;;;;;;;6.98;98.79;99885.06;4180852;28;20278;-60
2022/12/23 08:13:58;;;;;;;61.33;27.63;;;;;;;7.00;98.77;99884.91;4184393;28;20318;-58
2022/12/23 08:16:03;;;;;;;60.43;27.63;;;;;;;6.99;98.82;99885.91;4179137;28;20278;-58
2022/12/23 08:18:05;;;;;;;56.50;26.77;;;;;;;6.99;98.49;99892.13;4178591;28;20306;-59
2022/12/23 08:20:09;;;;;;;61.73;27.57;;;;;;;6.99;98.31;99892.13;4185914;28;20289;-59
2022/12/23 08:22:11;;;;;;;63.87;28.50;;;;;;;7.01;98.62;99905.38;4183368;28;20286;-60
2022/12/23 08:24:14;;;;;;;52.27;25.70;;;;;;;7.01;98.99;99906.19;4177620;28;20397;-59
2022/12/23 08:26:17;;;;;;;49.60;25.13;;;;;;;7.01;98.75;99894.63;4178001;28;20282;-59
2022/12/23 08:28:19;;;;;;;47.33;24.43;;;;;;;7.00;98.64;99901.00;4156916;28;20315;-58
2022/12/23 08:30:22;;;;;;;46.60;24.53;;;;;;;7.00;98.52;99904.50;4169169;28;20322;-59
2022/12/23 08:32:27;;;;;;;44.93;23.87;;;;;;;7.00;98.79;99903.69;4143681;28;20287;-60
2022/12/23 08:34:29;;;;;;;55.90;26.57;;;;;;;7.00;98.52;99904.50;4175401;28;20290;-60
2022/12/23 08:36:33;;;;;;;47.30;24.50;;;;;;;7.00;98.56;99907.19;4170590;28;21349;-60
2022/12/23 08:38:36;;;;;;;45.60;24.27;;;;;;;7.02;98.79;99910.56;4169890;28;20887;-60
2022/12/23 08:40:39;;;;;;;45.23;24.10;;;;;;;7.02;98.67;99907.03;4169406;28;20911;-61
2022/12/23 08:42:41;;;;;;;44.93;23.97;;;;;;;7.02;98.39;99907.88;4168287;28;20307;-58
2022/12/23 08:44:44;;;;;;;52.50;26.23;;;;;;;7.00;98.49;99903.69;4169295;28;20233;-60
2022/12/23 08:46:46;;;;;;;52.10;25.67;;;;;;;7.02;98.40;99915.09;4170115;28;20272;-61
2022/12/23 08:48:50;;;;;;;55.90;26.23;;;;;;;7.00;98.12;99907.19;4169745;28;20279;-58
2022/12/23 08:50:52;;;;;;;49.47;25.00;;;;;;;7.04;98.47;99913.09;4168901;28;20303;-60
2022/12/23 08:52:54;;;;;;;59.13;27.17;;;;;;;7.03;98.28;99912.22;4170320;28;20284;-60
2022/12/23 08:54:56;;;;;;;43.50;23.63;;;;;;;7.06;97.66;99916.41;4168178;28;20354;-60
2022/12/23 08:56:59;;;;;;;45.90;24.33;;;;;;;7.05;97.99;99917.41;4171614;28;20289;-57
2022/12/23 08:59:02;;;;;;;56.13;26.80;;;;;;;7.07;97.51;99925.31;4170433;28;20301;-61
2022/12/23 09:01:04;;;;;;;59.83;27.77;;;;;;;7.06;97.84;99916.41;4169233;28;20761;-57
2022/12/23 09:03:07;;;;;;;75.13;30.17;;;;;;;7.06;97.93;99911.06;4177807;28;20251;-57
2022/12/23 09:05:11;;;;;;;65.70;28.67;;;;;;;7.06;97.82;99927.16;4172095;28;20748;-58
2022/12/23 09:07:13;;;;;;;72.53;28.90;;;;;;;7.06;97.85;99924.47;4170079;28;20771;-56
2022/12/23 09:09:16;;;;;;;74.37;29.80;;;;;;;7.06;97.44;99943.28;4169670;28;20274;-60
2022/12/23 09:11:20;;;;;;;75.40;30.60;;;;;;;7.07;97.49;99934.22;4170414;28;20311;-58
2022/12/23 09:13:22;;;;;;;76.73;30.03;;;;;;;7.08;97.32;99932.34;4170804;28;20299;-59
2022/12/23 09:15:24;;;;;;;72.50;30.30;;;;;;;7.07;97.37;99928.84;4167598;28;20318;-58
2022/12/23 09:17:26;;;;;;;67.37;29.07;;;;;;;7.07;97.10;99928.84;4172710;28;20309;-60
2022/12/23 09:19:29;;;;;;;70.33;31.00;;;;;;;7.08;97.20;99929.66;4168312;28;20308;-61
2022/12/23 09:21:32;;;;;;;59.30;27.27;;;;;;;7.09;97.31;99934.03;4169977;28;20666;-60
2022/12/23 09:23:35;;;;;;;65.87;28.60;;;;;;;7.09;97.51;99937.56;4171962;28;20284;-58
2022/12/23 09:25:37;;;;;;;62.67;28.17;;;;;;;7.10;97.42;99947.28;4169058;28;20715;-58
2022/12/23 09:27:39;;;;;;;67.70;28.90;;;;;;;7.11;96.83;99958.88;4170420;28;20656;-58
2022/12/23 09:29:42;;;;;;;64.40;28.27;;;;;;;7.11;96.89;99965.06;4171121;28;20310;-58
2022/12/23 09:31:44;;;;;;;60.83;27.30;;;;;;;7.12;96.60;99955.19;4171233;28;20305;-54
2022/12/23 09:33:47;;;;;;;60.37;27.50;;;;;;;7.12;95.97;99973.97;4171989;28;20771;-58
2022/12/23 09:35:50;;;;;;;60.70;27.47;;;;;;;7.13;96.50;99975.63;4172051;28;20318;-58
2022/12/23 09:37:53;;;;;;;60.40;27.47;;;;;;;7.14;95.96;99982.69;4173221;28;20720;-59
2022/12/23 09:39:56;;;;;;;56.10;26.17;;;;;;;7.13;96.23;99981.00;4172121;28;20678;-57
2022/12/23 09:42:05;;;;;;;58.07;26.93;;;;;;;7.14;96.16;99980.00;4172533;28;20712;-57
2022/12/23 09:44:18;;;;;;;56.67;26.77;;;;;;;7.14;96.25;99986.19;4173311;28;20621;-59
2022/12/23 09:46:22;;;;;;;56.60;26.53;;;;;;;7.13;95.96;99991.75;4171584;28;20229;-57
2022/12/23 09:48:27;;;;;;;58.43;27.07;;;;;;;7.15;95.96;100000.47;4172372;28;20293;-57
2022/12/23 09:50:31;;;;;;;67.50;29.27;;;;;;;7.15;95.99;99997.78;4171042;28;20347;-57
2022/12/23 09:52:37;;;;;;;73.67;29.93;;;;;;;7.14;96.27;99996.94;4172651;28;20764;-59
2022/12/23 09:54:45;;;;;;;75.77;30.07;;;;;;;7.14;96.50;100002.31;4170848;28;20313;-59
2022/12/23 09:56:52;;;;;;;78.27;31.00;;;;;;;7.13;96.27;99999.78;4171612;28;20310;-54
2022/12/23 09:59:00;;;;;;;69.80;28.73;;;;;;;7.14;96.41;100010.38;4173084;28;20286;-57